createdAt,value
2023-04-22T00:02:25.029Z,7.12
2023-04-22T00:04:52.984Z,7.07
2023-04-22T00:07:20.976Z,7.02
2023-04-22T00:09:48.924Z,6.97
2023-04-22T00:12:16.496Z,6.92
2023-04-22T00:14:44.245Z,6.86
2023-04-22T00:17:11.882Z,6.80
2023-04-22T00:19:39.632Z,6.74
2023-04-22T00:22:07.676Z,6.66
2023-04-22T00:24:36.057Z,6.59
2023-04-22T00:27:04.126Z,6.53
2023-04-22T00:29:34.470Z,6.48
2023-04-22T00:32:02.261Z,6.43
2023-04-22T00:34:29.934Z,6.40
2023-04-22T00:36:57.630Z,6.39
2023-04-22T00:39:25.298Z,6.38
2023-04-22T00:41:53.335Z,6.36
2023-04-22T00:44:21.288Z,6.35
2023-04-22T00:46:49.171Z,6.33
2023-04-22T00:49:16.898Z,6.31
2023-04-22T00:51:44.591Z,6.29
2023-04-22T00:54:12.407Z,6.27
2023-04-22T00:56:40.278Z,6.24
2023-04-22T00:59:08.837Z,6.22
2023-04-22T01:01:37.282Z,6.18
2023-04-22T01:04:05.060Z,6.15
2023-04-22T01:06:32.817Z,6.11
2023-04-22T01:09:00.656Z,6.07
2023-04-22T01:11:28.329Z,6.02
2023-04-22T01:13:56.642Z,5.99
2023-04-22T01:16:24.303Z,5.96
2023-04-22T01:18:52.818Z,5.93
2023-04-22T01:21:20.693Z,5.90
2023-04-22T01:23:48.238Z,5.88
2023-04-22T01:26:16.068Z,5.85
2023-04-22T01:28:44.001Z,5.83
2023-04-22T01:31:11.838Z,5.79
2023-04-22T01:33:39.380Z,5.75
2023-04-22T01:36:07.211Z,5.71
2023-04-22T01:38:35.155Z,5.66
2023-04-22T01:41:04.994Z,5.62
2023-04-22T01:43:32.839Z,5.59
2023-04-22T01:46:00.882Z,5.55
2023-04-22T01:48:28.846Z,5.53
2023-04-22T01:50:56.687Z,5.51
2023-04-22T01:53:24.142Z,5.50
2023-04-22T01:55:53.123Z,5.49
2023-04-22T01:58:21.017Z,5.46
2023-04-22T02:00:49.193Z,5.43
2023-04-22T02:03:16.675Z,5.40
2023-04-22T02:05:44.296Z,5.35
2023-04-22T02:08:11.834Z,5.33
2023-04-22T02:10:39.312Z,5.30
2023-04-22T02:13:07.935Z,5.26
2023-04-22T02:15:39.182Z,5.22
2023-04-22T02:18:07.392Z,5.18
2023-04-22T02:20:35.895Z,5.14
2023-04-22T02:23:03.489Z,5.10
2023-04-22T02:25:32.259Z,5.07
2023-04-22T02:27:59.761Z,5.02
2023-04-22T02:30:27.260Z,4.99
2023-04-22T02:32:56.088Z,4.95
2023-04-22T02:35:23.985Z,4.90
2023-04-22T02:37:51.800Z,4.88
2023-04-22T02:40:19.474Z,4.87
2023-04-22T02:42:48.514Z,4.86
2023-04-22T02:45:15.909Z,4.87
2023-04-22T02:47:44.279Z,4.86
2023-04-22T02:50:12.190Z,4.85
2023-04-22T02:52:40.302Z,4.82
2023-04-22T02:55:08.415Z,4.79
2023-04-22T02:57:35.920Z,4.75
2023-04-22T03:00:04.573Z,4.71
2023-04-22T03:02:33.180Z,4.69
2023-04-22T03:05:13.175Z,4.69
2023-04-22T03:07:41.207Z,4.68
2023-04-22T03:10:09.501Z,4.69
2023-04-22T03:12:37.749Z,4.72
2023-04-22T03:15:05.957Z,4.77
2023-04-22T03:17:34.584Z,4.83
2023-04-22T03:20:03.422Z,4.89
2023-04-22T03:22:31.424Z,4.95
2023-04-22T03:24:59.610Z,5.01
2023-04-22T03:27:27.203Z,5.09
2023-04-22T03:29:55.453Z,5.20
2023-04-22T03:32:23.084Z,5.35
2023-04-22T03:34:58.242Z,5.54
2023-04-22T03:37:25.815Z,5.73
2023-04-22T03:39:53.758Z,5.94
2023-04-22T03:42:21.307Z,6.15
2023-04-22T03:44:48.985Z,6.38
2023-04-22T03:47:18.008Z,6.68
2023-04-22T03:49:49.178Z,7.03
2023-04-22T03:52:16.964Z,7.38
2023-04-22T03:54:49.053Z,7.72
2023-04-22T03:57:16.901Z,8.00
2023-04-22T03:59:45.560Z,8.18
2023-04-22T04:02:13.465Z,8.37
2023-04-22T04:04:41.166Z,8.59
2023-04-22T04:07:08.816Z,8.83
2023-04-22T04:09:36.369Z,9.08
2023-04-22T04:12:03.757Z,9.38
2023-04-22T04:14:34.258Z,9.75
2023-04-22T04:17:03.554Z,10.13
2023-04-22T04:19:32.846Z,10.52
2023-04-22T04:22:01.722Z,10.87
2023-04-22T04:24:31.378Z,11.23
2023-04-22T04:27:04.324Z,11.54
2023-04-22T04:29:37.603Z,11.81
2023-04-22T04:32:14.020Z,12.06
2023-04-22T04:34:42.792Z,12.23
2023-04-22T04:37:11.578Z,12.41
2023-04-22T04:39:54.667Z,12.62
2023-04-22T04:42:24.181Z,12.72
2023-04-22T04:44:54.220Z,12.72
2023-04-22T04:47:22.450Z,12.73
2023-04-22T04:49:53.100Z,12.81
2023-04-22T04:52:20.453Z,12.88
2023-04-22T04:54:47.916Z,12.96
2023-04-22T04:57:15.958Z,13.08
2023-04-22T04:59:43.474Z,13.23
2023-04-22T05:02:12.240Z,13.34
2023-04-22T05:04:41.278Z,13.45
2023-04-22T05:07:08.745Z,13.55
2023-04-22T05:09:37.965Z,13.61
2023-04-22T05:12:05.815Z,13.63
2023-04-22T05:14:33.918Z,13.67
2023-04-22T05:17:02.445Z,13.73
2023-04-22T05:19:30.109Z,13.77
2023-04-22T05:21:57.540Z,13.78
2023-04-22T05:24:25.301Z,13.84
2023-04-22T05:26:52.983Z,13.93
2023-04-22T05:29:20.493Z,14.03
2023-04-22T05:31:47.881Z,14.11
2023-04-22T05:34:15.400Z,14.21
2023-04-22T05:36:43.485Z,14.31
2023-04-22T05:39:11.139Z,14.40
2023-04-22T05:41:39.037Z,14.54
2023-04-22T05:44:09.026Z,14.62
2023-04-22T05:46:36.665Z,14.62
2023-04-22T05:49:04.331Z,14.62
2023-04-22T05:51:51.930Z,14.70
2023-04-22T05:54:20.867Z,14.79
2023-04-22T05:56:48.726Z,14.83
2023-04-22T05:59:17.824Z,14.87
2023-04-22T06:01:46.322Z,14.92
2023-04-22T06:04:18.510Z,15.00
2023-04-22T06:06:47.382Z,15.05
2023-04-22T06:09:14.843Z,15.10
2023-04-22T06:11:42.965Z,15.10
2023-04-22T06:14:10.238Z,15.15
2023-04-22T06:16:38.010Z,15.22
2023-04-22T06:19:06.596Z,15.29
2023-04-22T06:21:36.814Z,15.35
2023-04-22T06:24:05.897Z,15.47
2023-04-22T06:26:33.327Z,15.57
2023-04-22T06:29:02.673Z,15.57
2023-04-22T06:31:30.516Z,15.59
2023-04-22T06:33:58.085Z,15.65
2023-04-22T06:36:29.695Z,15.78
2023-04-22T06:39:00.701Z,15.90
2023-04-22T06:41:47.530Z,15.96
2023-04-22T06:44:37.765Z,16.01
2023-04-22T06:47:28.408Z,16.08
2023-04-22T06:50:03.210Z,16.24
2023-04-22T06:52:41.316Z,16.36
2023-04-22T06:55:09.076Z,16.46
2023-04-22T06:57:36.570Z,16.54
2023-04-22T07:00:10.136Z,16.58
2023-04-22T07:02:40.102Z,16.58
2023-04-22T07:05:07.755Z,16.57
2023-04-22T07:07:35.708Z,16.62
2023-04-22T07:10:03.429Z,16.69
2023-04-22T07:12:35.519Z,16.75
2023-04-22T07:15:02.990Z,16.78
2023-04-22T07:17:31.122Z,16.75
2023-04-22T07:19:58.442Z,16.73
2023-04-22T07:22:25.816Z,16.77
2023-04-22T07:24:53.167Z,16.81
2023-04-22T07:27:20.493Z,16.88
2023-04-22T07:29:47.934Z,16.94
2023-04-22T07:32:15.397Z,16.99
2023-04-22T07:34:42.661Z,17.01
2023-04-22T07:37:10.537Z,17.07
2023-04-22T07:39:38.048Z,17.16
2023-04-22T07:42:06.964Z,17.15
2023-04-22T07:44:35.426Z,17.12
2023-04-22T07:47:04.176Z,17.11
2023-04-22T07:49:31.920Z,17.09
2023-04-22T07:51:59.194Z,17.09
2023-04-22T07:54:26.602Z,17.09
2023-04-22T07:56:54.240Z,17.11
2023-04-22T07:59:21.544Z,17.11
2023-04-22T08:01:48.878Z,17.10
2023-04-22T08:04:16.594Z,17.09
2023-04-22T08:06:44.157Z,17.06
2023-04-22T08:09:11.999Z,16.98
2023-04-22T08:11:39.295Z,16.93
2023-04-22T08:14:06.586Z,16.92
2023-04-22T08:16:33.957Z,16.93
2023-04-22T08:19:01.311Z,16.95
2023-04-22T08:21:28.763Z,17.05
2023-04-22T08:23:56.126Z,17.17
2023-04-22T08:26:23.372Z,17.30
2023-04-22T08:28:50.691Z,17.41
2023-04-22T08:31:19.090Z,17.47
2023-04-22T08:33:46.463Z,17.54
2023-04-22T08:36:13.799Z,17.63
2023-04-22T08:38:41.103Z,17.75
2023-04-22T08:41:08.246Z,17.81
2023-04-22T08:43:35.813Z,17.87
2023-04-22T08:46:03.132Z,17.95
2023-04-22T08:48:30.677Z,17.96
2023-04-22T08:50:58.657Z,17.97
2023-04-22T08:53:25.939Z,18.02
2023-04-22T08:55:53.245Z,18.10
2023-04-22T08:58:20.551Z,18.15
2023-04-22T09:00:47.883Z,18.17
2023-04-22T09:03:15.766Z,18.15
2023-04-22T09:05:43.327Z,18.15
2023-04-22T09:08:11.717Z,18.15
2023-04-22T09:10:39.032Z,18.14
2023-04-22T09:13:07.588Z,18.12
2023-04-22T09:15:35.163Z,18.08
2023-04-22T09:18:03.941Z,18.08
2023-04-22T09:20:31.552Z,18.15
2023-04-22T09:23:01.932Z,18.20
2023-04-22T09:25:29.297Z,18.26
2023-04-22T09:27:59.075Z,18.33
2023-04-22T09:30:27.202Z,18.42
2023-04-22T09:32:55.992Z,18.45
2023-04-22T09:35:39.885Z,18.40
2023-04-22T09:38:08.261Z,18.32
2023-04-22T09:40:35.968Z,18.19
2023-04-22T09:43:04.669Z,18.00
2023-04-22T09:45:35.495Z,17.78
2023-04-22T09:48:04.260Z,17.62
2023-04-22T09:50:32.166Z,17.52
2023-04-22T09:53:00.975Z,17.42
2023-04-22T09:55:28.941Z,17.33
2023-04-22T09:57:56.814Z,17.26
2023-04-22T10:00:28.513Z,17.20
2023-04-22T10:02:55.953Z,17.13
2023-04-22T10:05:25.172Z,17.04
2023-04-22T10:07:53.107Z,16.97
2023-04-22T10:10:20.619Z,16.91
2023-04-22T10:12:49.134Z,16.88
2023-04-22T10:15:16.381Z,16.86
2023-04-22T10:17:43.779Z,16.84
2023-04-22T10:20:13.558Z,16.85
2023-04-22T10:22:42.586Z,16.91
2023-04-22T10:25:13.856Z,16.97
2023-04-22T10:27:41.343Z,17.02
2023-04-22T10:30:09.041Z,17.05
2023-04-22T10:32:37.800Z,17.04
2023-04-22T10:35:09.445Z,17.06
2023-04-22T10:37:39.695Z,17.09
2023-04-22T10:40:11.527Z,17.14
2023-04-22T10:42:39.562Z,17.18
2023-04-22T10:45:07.249Z,17.22
2023-04-22T10:47:35.581Z,17.29
2023-04-22T10:50:20.421Z,17.41
2023-04-22T10:52:51.892Z,17.52
2023-04-22T10:55:19.348Z,17.63
2023-04-22T10:57:47.580Z,17.73
2023-04-22T11:00:17.699Z,17.79
2023-04-22T11:02:46.221Z,17.81
2023-04-22T11:05:20.723Z,17.78
2023-04-22T11:07:49.397Z,17.75
2023-04-22T11:10:53.786Z,17.76
2023-04-22T11:13:21.592Z,17.80
2023-04-22T11:15:49.853Z,17.89
2023-04-22T11:18:18.305Z,17.99
2023-04-22T11:20:47.957Z,17.99
2023-04-22T11:23:28.504Z,17.97
2023-04-22T11:25:59.609Z,17.98
2023-04-22T11:28:27.111Z,17.95
2023-04-22T11:31:04.352Z,17.97
2023-04-22T11:33:32.386Z,17.97
2023-04-22T11:35:59.709Z,17.97
2023-04-22T11:38:27.010Z,17.96
2023-04-22T11:40:54.796Z,17.89
2023-04-22T11:43:22.141Z,17.76
2023-04-22T11:45:50.311Z,17.64
2023-04-22T11:48:17.567Z,17.54
2023-04-22T11:50:45.409Z,17.48
2023-04-22T11:53:16.628Z,17.43
2023-04-22T11:55:44.488Z,17.41
2023-04-22T11:58:12.842Z,17.41
2023-04-22T12:00:40.329Z,17.41
2023-04-22T12:03:18.152Z,17.38
2023-04-22T12:05:45.968Z,17.36
2023-04-22T12:08:14.099Z,17.33
2023-04-22T12:10:45.674Z,17.37
2023-04-22T12:13:19.636Z,17.42
2023-04-22T12:15:46.888Z,17.46
2023-04-22T12:18:14.197Z,17.47
2023-04-22T12:20:41.637Z,17.44
2023-04-22T12:23:13.306Z,17.36
2023-04-22T12:25:41.080Z,17.27
2023-04-22T12:28:08.504Z,17.21
2023-04-22T12:30:36.060Z,17.19
2023-04-22T12:33:03.724Z,17.20
2023-04-22T12:35:31.216Z,17.22
2023-04-22T12:37:58.608Z,17.24
2023-04-22T12:40:25.841Z,17.27
2023-04-22T12:42:53.138Z,17.26
2023-04-22T12:45:22.700Z,17.26
2023-04-22T12:47:53.361Z,17.24
2023-04-22T12:50:20.805Z,17.26
2023-04-22T12:52:48.017Z,17.32
2023-04-22T12:55:15.305Z,17.40
2023-04-22T12:57:44.167Z,17.43
2023-04-22T13:00:14.532Z,17.43
2023-04-22T13:02:46.507Z,17.42
2023-04-22T13:05:13.967Z,17.43
2023-04-22T13:07:41.881Z,17.43
2023-04-22T13:10:13.244Z,17.43
2023-04-22T13:12:41.523Z,17.42
2023-04-22T13:15:09.413Z,17.39
2023-04-22T13:17:38.010Z,17.36
2023-04-22T13:20:06.099Z,17.31
2023-04-22T13:22:33.775Z,17.24
2023-04-22T13:25:01.364Z,17.19
2023-04-22T13:27:28.806Z,17.16
2023-04-22T13:29:56.695Z,17.15
2023-04-22T13:32:23.981Z,17.12
2023-04-22T13:34:52.291Z,17.10
2023-04-22T13:37:21.355Z,17.07
2023-04-22T13:39:49.156Z,17.05
2023-04-22T13:42:16.635Z,17.03
2023-04-22T13:44:44.105Z,16.99
2023-04-22T13:47:12.361Z,16.96
2023-04-22T13:49:40.586Z,16.94
2023-04-22T13:52:08.474Z,16.92
2023-04-22T13:54:35.871Z,16.88
2023-04-22T13:57:03.690Z,16.85
2023-04-22T13:59:31.312Z,16.83
2023-04-22T14:01:58.583Z,16.81
2023-04-22T14:04:26.121Z,16.79
2023-04-22T14:06:53.943Z,16.78
2023-04-22T14:09:21.338Z,16.75
2023-04-22T14:11:48.707Z,16.72
2023-04-22T14:14:16.159Z,16.69
2023-04-22T14:16:43.607Z,16.64
2023-04-22T14:19:11.466Z,16.59
2023-04-22T14:21:38.785Z,16.53
2023-04-22T14:24:06.205Z,16.48
2023-04-22T14:26:33.446Z,16.45
2023-04-22T14:29:00.807Z,16.42
2023-04-22T14:31:28.216Z,16.39
2023-04-22T14:33:55.570Z,16.34
2023-04-22T14:36:22.742Z,16.32
2023-04-22T14:38:50.205Z,16.34
2023-04-22T14:41:17.422Z,16.36
2023-04-22T14:43:44.786Z,16.36
2023-04-22T14:46:13.470Z,16.37
2023-04-22T14:48:41.152Z,16.39
2023-04-22T14:51:08.437Z,16.39
2023-04-22T14:53:36.233Z,16.36
2023-04-22T14:56:03.640Z,16.34
2023-04-22T14:58:31.102Z,16.31
2023-04-22T15:00:59.626Z,16.27
2023-04-22T15:03:27.263Z,16.25
2023-04-22T15:05:55.426Z,16.21
2023-04-22T15:08:24.965Z,16.17
2023-04-22T15:10:52.192Z,16.14
2023-04-22T15:13:21.958Z,16.11
2023-04-22T15:15:49.737Z,16.10
2023-04-22T15:18:17.317Z,16.10
2023-04-22T15:20:45.317Z,16.12
2023-04-22T15:23:12.605Z,16.15
2023-04-22T15:25:40.029Z,16.17
2023-04-22T15:28:07.546Z,16.18
2023-04-22T15:30:35.985Z,16.17
2023-04-22T15:33:04.561Z,16.16
2023-04-22T15:35:32.290Z,16.14
2023-04-22T15:38:01.058Z,16.12
2023-04-22T15:40:28.480Z,16.09
2023-04-22T15:42:55.817Z,16.06
2023-04-22T15:45:23.037Z,16.02
2023-04-22T15:47:52.810Z,15.97
2023-04-22T15:50:23.239Z,15.93
2023-04-22T15:52:50.770Z,15.88
2023-04-22T15:55:19.559Z,15.84
2023-04-22T15:57:46.786Z,15.80
2023-04-22T16:00:14.592Z,15.76
2023-04-22T16:02:42.897Z,15.71
2023-04-22T16:05:14.324Z,15.67
2023-04-22T16:07:42.265Z,15.62
2023-04-22T16:10:10.087Z,15.58
2023-04-22T16:12:38.806Z,15.53
2023-04-22T16:15:06.935Z,15.47
2023-04-22T16:17:35.483Z,15.42
2023-04-22T16:20:05.741Z,15.35
2023-04-22T16:22:33.598Z,15.28
2023-04-22T16:25:01.026Z,15.22
2023-04-22T16:27:28.785Z,15.15
2023-04-22T16:29:56.260Z,15.08
2023-04-22T16:32:26.604Z,15.01
2023-04-22T16:34:56.668Z,14.94
2023-04-22T16:37:25.212Z,14.86
2023-04-22T16:39:52.745Z,14.76
2023-04-22T16:42:20.584Z,14.65
2023-04-22T16:44:48.024Z,14.55
2023-04-22T16:47:15.945Z,14.43
2023-04-22T16:49:43.639Z,14.32
2023-04-22T16:52:11.142Z,14.21
2023-04-22T16:54:40.484Z,14.08
2023-04-22T16:57:08.492Z,13.95
2023-04-22T16:59:35.928Z,13.83
2023-04-22T17:02:03.765Z,13.70
2023-04-22T17:04:31.563Z,13.57
2023-04-22T17:07:00.846Z,13.44
2023-04-22T17:09:28.509Z,13.33
2023-04-22T17:11:56.170Z,13.22
2023-04-22T17:14:23.572Z,13.12
2023-04-22T17:16:51.037Z,13.02
2023-04-22T17:19:18.398Z,12.93
2023-04-22T17:21:45.574Z,12.84
2023-04-22T17:24:12.812Z,12.75
2023-04-22T17:26:40.493Z,12.66
2023-04-22T17:29:07.950Z,12.58
2023-04-22T17:31:36.063Z,12.49
2023-04-22T17:34:04.051Z,12.40
2023-04-22T17:36:31.955Z,12.31
2023-04-22T17:38:59.632Z,12.22
2023-04-22T17:41:27.635Z,12.14
2023-04-22T17:43:55.986Z,12.07
2023-04-22T17:46:27.251Z,12.00
2023-04-22T17:48:54.723Z,11.92
2023-04-22T17:51:22.305Z,11.85
2023-04-22T17:53:49.761Z,11.78
2023-04-22T17:56:17.174Z,11.72
2023-04-22T17:58:44.907Z,11.67
2023-04-22T18:01:12.599Z,11.61
2023-04-22T18:03:41.559Z,11.55
2023-04-22T18:06:09.353Z,11.50
2023-04-22T18:08:37.051Z,11.44
2023-04-22T18:11:05.448Z,11.38
2023-04-22T18:13:33.074Z,11.33
2023-04-22T18:16:00.668Z,11.28
2023-04-22T18:18:28.772Z,11.24
2023-04-22T18:20:56.378Z,11.19
2023-04-22T18:23:23.908Z,11.14
2023-04-22T18:25:52.429Z,11.10
2023-04-22T18:28:19.974Z,11.05
2023-04-22T18:30:47.387Z,11.01
2023-04-22T18:33:15.015Z,10.97
2023-04-22T18:35:42.442Z,10.93
2023-04-22T18:38:10.013Z,10.88
2023-04-22T18:40:37.562Z,10.84
2023-04-22T18:43:04.909Z,10.80
2023-04-22T18:45:32.937Z,10.76
2023-04-22T18:48:00.787Z,10.72
2023-04-22T18:50:28.768Z,10.70
2023-04-22T18:52:56.170Z,10.67
2023-04-22T18:55:23.692Z,10.65
2023-04-22T18:57:51.310Z,10.63
2023-04-22T19:00:18.825Z,10.61
2023-04-22T19:02:46.666Z,10.59
2023-04-22T19:05:14.289Z,10.57
2023-04-22T19:07:44.471Z,10.53
2023-04-22T19:10:12.833Z,10.51
2023-04-22T19:12:40.609Z,10.48
2023-04-22T19:15:08.461Z,10.46
2023-04-22T19:17:37.833Z,10.44
2023-04-22T19:20:05.866Z,10.41
2023-04-22T19:22:33.813Z,10.38
2023-04-22T19:25:05.847Z,10.36
2023-04-22T19:27:34.293Z,10.33
2023-04-22T19:30:01.746Z,10.31
2023-04-22T19:32:29.723Z,10.29
2023-04-22T19:34:57.132Z,10.27
2023-04-22T19:37:25.723Z,10.26
2023-04-22T19:39:53.062Z,10.24
2023-04-22T19:42:20.728Z,10.22
2023-04-22T19:44:48.143Z,10.21
2023-04-22T19:47:15.578Z,10.19
2023-04-22T19:49:43.767Z,10.17
2023-04-22T19:52:12.726Z,10.15
2023-04-22T19:54:41.398Z,10.14
2023-04-22T19:57:10.255Z,10.13
2023-04-22T19:59:39.338Z,10.12
2023-04-22T20:02:07.797Z,10.11
2023-04-22T20:04:36.979Z,10.09
2023-04-22T20:07:04.865Z,10.07
2023-04-22T20:09:32.905Z,10.06
2023-04-22T20:12:00.963Z,10.04
2023-04-22T20:14:28.612Z,10.03
2023-04-22T20:16:56.145Z,10.02
2023-04-22T20:19:23.497Z,10.01
2023-04-22T20:21:50.919Z,10.01
2023-04-22T20:24:19.655Z,10.01
2023-04-22T20:26:47.657Z,10.01
2023-04-22T20:29:16.200Z,10.01
2023-04-22T20:31:43.664Z,10.02
2023-04-22T20:34:11.695Z,10.02
2023-04-22T20:36:39.036Z,10.03
2023-04-22T20:39:09.186Z,10.03
2023-04-22T20:41:38.363Z,10.04
2023-04-22T20:44:06.119Z,10.04
2023-04-22T20:46:33.617Z,10.04
2023-04-22T20:49:01.029Z,10.04
2023-04-22T20:51:28.856Z,10.04
2023-04-22T20:53:56.217Z,10.03
2023-04-22T20:56:24.541Z,10.03
2023-04-22T20:58:52.304Z,10.02
2023-04-22T21:01:19.778Z,10.01
2023-04-22T21:03:49.923Z,9.99
2023-04-22T21:06:20.946Z,9.97
2023-04-22T21:08:49.200Z,9.95
2023-04-22T21:11:18.269Z,9.93
2023-04-22T21:13:46.061Z,9.90
2023-04-22T21:16:13.694Z,9.88
2023-04-22T21:18:43.100Z,9.85
2023-04-22T21:21:10.692Z,9.82
2023-04-22T21:23:39.320Z,9.80
2023-04-22T21:26:06.927Z,9.75
2023-04-22T21:28:34.531Z,9.72
2023-04-22T21:31:04.268Z,9.68
2023-04-22T21:33:32.811Z,9.64
2023-04-22T21:36:00.910Z,9.61
2023-04-22T21:38:28.885Z,9.57
2023-04-22T21:40:56.229Z,9.54
2023-04-22T21:43:23.607Z,9.49
2023-04-22T21:45:50.914Z,9.46
2023-04-22T21:48:18.476Z,9.41
2023-04-22T21:50:45.872Z,9.37
2023-04-22T21:53:13.554Z,9.32
2023-04-22T21:55:40.737Z,9.27
2023-04-22T21:58:08.060Z,9.22
2023-04-22T22:00:37.453Z,9.18
2023-04-22T22:03:05.892Z,9.14
2023-04-22T22:05:33.577Z,9.10
2023-04-22T22:08:01.575Z,9.07
2023-04-22T22:10:29.810Z,9.03
2023-04-22T22:12:57.512Z,9.00
2023-04-22T22:15:25.020Z,8.97
2023-04-22T22:17:52.368Z,8.94
2023-04-22T22:20:20.134Z,8.91
2023-04-22T22:22:47.727Z,8.89
2023-04-22T22:25:15.319Z,8.88
2023-04-22T22:27:46.515Z,8.86
2023-04-22T22:30:14.411Z,8.84
2023-04-22T22:32:42.192Z,8.83
2023-04-22T22:35:09.702Z,8.80
2023-04-22T22:37:37.728Z,8.78
2023-04-22T22:40:05.493Z,8.76
2023-04-22T22:42:33.690Z,8.74
2023-04-22T22:45:01.042Z,8.71
2023-04-22T22:47:28.994Z,8.70
2023-04-22T22:49:59.186Z,8.69
2023-04-22T22:52:26.500Z,8.67
2023-04-22T22:54:53.991Z,8.65
2023-04-22T22:57:21.412Z,8.64
2023-04-22T22:59:48.692Z,8.62
2023-04-22T23:02:16.128Z,8.61
2023-04-22T23:04:43.755Z,8.60
2023-04-22T23:07:11.976Z,8.58
2023-04-22T23:09:39.279Z,8.57
2023-04-22T23:12:06.615Z,8.55
2023-04-22T23:14:34.898Z,8.54
2023-04-22T23:17:02.360Z,8.54
2023-04-22T23:19:29.884Z,8.52
2023-04-22T23:21:57.342Z,8.51
2023-04-22T23:24:24.887Z,8.50
2023-04-22T23:26:52.469Z,8.48
2023-04-22T23:29:20.099Z,8.47
2023-04-22T23:31:47.374Z,8.45
2023-04-22T23:34:14.897Z,8.43
2023-04-22T23:36:42.485Z,8.41
2023-04-22T23:39:09.899Z,8.39
2023-04-22T23:41:37.839Z,8.36
2023-04-22T23:44:06.167Z,8.34
2023-04-22T23:46:33.673Z,8.33
2023-04-22T23:49:01.313Z,8.30
2023-04-22T23:51:29.380Z,8.29
2023-04-22T23:53:56.676Z,8.28
2023-04-22T23:56:24.291Z,8.26
2023-04-22T23:58:51.789Z,8.25
